createdAt,value
2019-05-17T00:01:47.859Z,22.37
2019-05-17T00:04:22.491Z,22.37
2019-05-17T00:06:57.060Z,23.00
2019-05-17T00:09:30.900Z,23.70
2019-05-17T00:12:07.282Z,23.57
2019-05-17T00:14:40.205Z,23.33
2019-05-17T00:17:13.779Z,24.20
2019-05-17T00:19:47.485Z,24.70
2019-05-17T00:22:21.100Z,26.57
2019-05-17T00:24:56.675Z,28.23
2019-05-17T00:27:30.009Z,29.93
2019-05-17T00:30:06.594Z,32.03
2019-05-17T00:32:40.133Z,28.63
2019-05-17T00:35:14.115Z,25.53
2019-05-17T00:37:47.777Z,25.77
2019-05-17T00:40:22.056Z,24.23
2019-05-17T00:46:32.695Z,22.60
2019-05-17T00:49:06.629Z,20.70
2019-05-17T00:51:40.447Z,16.13
2019-05-17T00:54:14.119Z,18.57
2019-05-17T00:56:47.815Z,18.53
2019-05-17T01:03:07.633Z,23.27
2019-05-17T01:05:41.225Z,24.87
2019-05-17T01:08:17.293Z,24.37
2019-05-17T01:10:50.791Z,25.30
2019-05-17T01:13:26.564Z,25.77
2019-05-17T01:15:59.874Z,26.97
2019-05-17T01:18:33.564Z,29.30
2019-05-17T01:21:07.835Z,30.70
2019-05-17T01:23:41.443Z,28.50
2019-05-17T01:26:15.417Z,37.63
2019-05-17T01:28:49.011Z,33.53
2019-05-17T01:31:23.054Z,28.30
2019-05-17T01:33:56.687Z,28.77
2019-05-17T01:36:30.348Z,29.03
2019-05-17T01:39:15.182Z,33.60
2019-05-17T01:41:39.489Z,40.43
2019-05-17T01:44:13.095Z,28.03
2019-05-17T01:46:46.799Z,34.87
2019-05-17T01:49:20.541Z,33.90
2019-05-17T01:51:56.656Z,32.20
2019-05-17T01:54:29.587Z,30.70
2019-05-17T01:57:03.395Z,32.40
2019-05-17T01:59:37.375Z,38.33
2019-05-17T02:02:29.089Z,28.47
2019-05-17T02:05:03.072Z,25.37
2019-05-17T02:07:37.371Z,31.80
2019-05-17T02:10:12.956Z,27.60
2019-05-17T02:12:49.110Z,31.40
2019-05-17T02:15:22.591Z,33.10
2019-05-17T02:17:57.379Z,25.47
2019-05-17T02:20:31.164Z,27.67
2019-05-17T02:23:07.017Z,28.47
2019-05-17T02:25:40.169Z,34.30
2019-05-17T02:32:03.521Z,29.73
2019-05-17T02:34:35.166Z,44.37
2019-05-17T02:37:08.780Z,41.33
2019-05-17T02:39:53.825Z,36.80
2019-05-17T02:42:17.820Z,34.90
2019-05-17T02:48:37.618Z,37.87
2019-05-17T02:51:13.046Z,32.40
2019-05-17T02:53:46.635Z,39.43
2019-05-17T02:56:22.842Z,39.03
2019-05-17T02:58:55.557Z,42.70
2019-05-17T03:01:32.823Z,50.60
2019-05-17T03:04:05.267Z,49.00
2019-05-17T03:06:38.973Z,49.20
2019-05-17T03:09:12.666Z,46.17
2019-05-17T03:11:46.343Z,55.80
2019-05-17T03:14:22.786Z,48.43
2019-05-17T03:16:55.217Z,56.97
2019-05-17T03:19:32.541Z,48.83
2019-05-17T03:22:07.761Z,52.30
2019-05-17T03:24:39.942Z,48.47
2019-05-17T03:27:13.822Z,46.60
2019-05-17T03:29:47.787Z,41.20
2019-05-17T03:32:26.353Z,39.27
2019-05-17T03:34:57.251Z,40.23
2019-05-17T03:37:37.292Z,37.87
2019-05-17T03:40:23.297Z,37.77
2019-05-17T03:42:43.003Z,34.23
2019-05-17T03:45:17.170Z,30.53
2019-05-17T03:47:53.211Z,26.53
2019-05-17T03:50:26.138Z,25.10
2019-05-17T03:53:02.375Z,23.90
2019-05-17T03:55:35.309Z,22.17
2019-05-17T03:58:08.969Z,24.33
2019-05-17T04:00:43.001Z,25.30
2019-05-17T04:03:16.769Z,23.43
2019-05-17T04:05:52.858Z,23.97
2019-05-17T04:08:25.806Z,25.00
2019-05-17T04:11:17.614Z,22.63
2019-05-17T04:17:22.752Z,24.23
2019-05-17T04:19:56.851Z,24.13
2019-05-17T04:22:33.108Z,26.70
2019-05-17T04:25:06.638Z,31.57
2019-05-17T04:27:43.654Z,44.30
2019-05-17T04:34:03.091Z,31.10
2019-05-17T04:36:37.001Z,37.27
2019-05-17T04:39:13.315Z,30.90
2019-05-17T04:41:50.363Z,33.30
2019-05-17T04:44:23.082Z,35.67
2019-05-17T04:46:57.129Z,30.03
2019-05-17T04:49:33.041Z,37.23
2019-05-17T04:52:06.418Z,40.30
2019-05-17T04:54:42.465Z,37.90
2019-05-17T04:57:15.457Z,36.07
2019-05-17T04:59:52.352Z,46.27
2019-05-17T05:02:25.422Z,36.73
2019-05-17T05:05:02.894Z,33.63
2019-05-17T05:07:34.650Z,29.03
2019-05-17T05:10:09.540Z,36.80
2019-05-17T05:12:44.498Z,26.37
2019-05-17T05:15:22.534Z,26.30
2019-05-17T05:17:56.373Z,45.47
2019-05-17T05:20:32.431Z,42.17
2019-05-17T05:23:05.524Z,32.07
2019-05-17T05:25:39.125Z,23.03
2019-05-17T05:28:12.854Z,20.23
2019-05-17T05:30:46.514Z,20.57
2019-05-17T05:33:22.169Z,26.27
2019-05-17T05:35:55.373Z,24.63
2019-05-17T05:38:28.970Z,27.33
2019-05-17T05:41:02.742Z,17.67
2019-05-17T05:47:12.906Z,23.90
2019-05-17T05:49:46.499Z,21.03
2019-05-17T05:52:21.884Z,23.17
2019-05-17T05:54:55.594Z,23.30
2019-05-17T05:57:29.256Z,24.93
2019-05-17T06:03:49.400Z,23.07
2019-05-17T06:06:23.038Z,25.17
2019-05-17T06:08:56.872Z,24.00
2019-05-17T06:11:32.225Z,26.77
2019-05-17T06:14:06.203Z,24.47
2019-05-17T06:16:42.548Z,27.67
2019-05-17T06:19:15.820Z,27.80
2019-05-17T06:21:51.849Z,27.10
2019-05-17T06:24:24.744Z,25.73
2019-05-17T06:26:58.416Z,25.20
2019-05-17T06:29:32.778Z,25.50
2019-05-17T06:32:06.784Z,25.33
2019-05-17T06:34:42.248Z,24.20
2019-05-17T06:37:16.687Z,25.73
2019-05-17T06:39:52.508Z,23.80
2019-05-17T06:42:37.229Z,23.20
2019-05-17T06:45:02.205Z,20.63
2019-05-17T06:47:36.056Z,20.43
2019-05-17T06:50:10.098Z,20.37
2019-05-17T06:52:44.180Z,20.33
2019-05-17T06:55:17.937Z,20.63
2019-05-17T06:57:52.802Z,21.93
2019-05-17T07:00:29.793Z,19.30
2019-05-17T07:03:03.128Z,19.07
2019-05-17T07:05:40.401Z,20.07
2019-05-17T07:08:13.780Z,21.10
2019-05-17T07:10:47.419Z,19.70
2019-05-17T07:13:21.017Z,24.13
2019-05-17T07:15:54.706Z,25.87
2019-05-17T07:18:30.002Z,26.60
2019-05-17T07:21:03.843Z,30.23
2019-05-17T07:23:39.523Z,28.00
2019-05-17T07:26:13.098Z,29.60
2019-05-17T07:28:46.844Z,27.27
2019-05-17T07:31:23.105Z,27.07
2019-05-17T07:33:55.866Z,24.57
2019-05-17T07:36:30.653Z,25.73
2019-05-17T07:39:05.594Z,27.70
2019-05-17T07:41:40.131Z,25.93
2019-05-17T07:47:51.487Z,26.67
2019-05-17T07:50:25.259Z,25.67
2019-05-17T07:53:00.611Z,25.03
2019-05-17T07:55:34.351Z,25.90
2019-05-17T07:58:10.055Z,25.47
2019-05-17T08:04:30.462Z,22.00
2019-05-17T08:07:04.231Z,21.10
2019-05-17T08:09:40.272Z,22.50
2019-05-17T08:12:13.478Z,21.63
2019-05-17T08:14:50.293Z,18.87
2019-05-17T08:17:24.111Z,18.73
2019-05-17T08:20:00.312Z,18.23
2019-05-17T08:22:33.134Z,17.03
2019-05-17T08:25:07.148Z,16.43
2019-05-17T08:27:40.859Z,16.67
2019-05-17T08:30:15.029Z,17.50
2019-05-17T08:32:50.450Z,16.90
2019-05-17T08:35:23.932Z,17.57
2019-05-17T08:38:00.340Z,16.90
2019-05-17T08:40:33.364Z,17.87
2019-05-17T08:43:09.727Z,17.53
2019-05-17T08:45:42.364Z,17.47
2019-05-17T08:48:15.996Z,18.23
2019-05-17T08:50:49.700Z,17.03
2019-05-17T08:53:23.512Z,17.13
2019-05-17T08:55:57.175Z,17.50
2019-05-17T08:58:31.165Z,17.40
2019-05-17T09:01:04.895Z,17.83
2019-05-17T09:03:41.033Z,17.33
2019-05-17T09:06:14.802Z,21.55
2019-05-17T09:08:49.960Z,17.33
2019-05-17T09:11:23.699Z,15.53
2019-05-17T09:14:01.122Z,16.23
2019-05-17T09:16:34.108Z,16.03
2019-05-17T09:19:10.078Z,15.63
2019-05-17T09:21:43.804Z,16.00
2019-05-17T09:24:19.485Z,14.80
2019-05-17T09:26:52.868Z,16.37
2019-05-17T09:33:13.176Z,16.20
2019-05-17T09:35:46.829Z,17.50
2019-05-17T09:38:20.528Z,17.03
2019-05-17T09:40:54.131Z,17.93
2019-05-17T09:43:29.536Z,17.53
2019-05-17T09:49:50.144Z,19.03
2019-05-17T09:52:24.175Z,18.47
2019-05-17T09:55:00.436Z,19.33
2019-05-17T09:57:33.530Z,18.53
2019-05-17T10:00:09.909Z,17.93
2019-05-17T10:02:43.828Z,19.30
2019-05-17T10:05:19.969Z,19.13
2019-05-17T10:07:52.787Z,18.03
2019-05-17T10:10:26.464Z,19.17
2019-05-17T10:13:00.307Z,18.30
2019-05-17T10:15:34.357Z,19.03
2019-05-17T10:18:10.766Z,18.07
2019-05-17T10:20:43.409Z,17.30
2019-05-17T10:23:19.510Z,16.97
2019-05-17T10:25:52.459Z,16.23
2019-05-17T10:28:26.361Z,15.47
2019-05-17T10:31:02.425Z,15.90
2019-05-17T10:33:35.398Z,15.07
2019-05-17T10:36:09.954Z,15.40
2019-05-17T10:38:43.896Z,16.33
2019-05-17T10:41:19.725Z,16.57
2019-05-17T10:43:52.850Z,15.60
2019-05-17T10:46:26.507Z,16.57
2019-05-17T10:49:00.156Z,17.53
2019-05-17T10:51:34.105Z,16.10
2019-05-17T10:54:09.566Z,15.67
2019-05-17T10:56:43.351Z,15.27
2019-05-17T10:59:17.090Z,14.50
2019-05-17T11:01:50.857Z,14.17
2019-05-17T11:04:24.873Z,13.17
2019-05-17T11:06:59.672Z,13.57
2019-05-17T11:09:33.408Z,12.53
2019-05-17T11:12:07.218Z,13.07
2019-05-17T11:18:18.406Z,13.17
2019-05-17T11:20:51.990Z,12.90
2019-05-17T11:23:25.682Z,13.73
2019-05-17T11:25:59.326Z,13.97
2019-05-17T11:28:32.911Z,12.57
2019-05-17T11:34:43.915Z,12.80
2019-05-17T11:37:17.496Z,13.90
2019-05-17T11:39:51.119Z,13.43
2019-05-17T11:42:24.829Z,12.37
2019-05-17T11:44:58.504Z,13.40
2019-05-17T11:47:32.212Z,12.93
2019-05-17T11:50:09.034Z,13.23
2019-05-17T11:52:42.679Z,14.87
2019-05-17T11:55:16.407Z,13.50
2019-05-17T11:57:50.025Z,11.73
2019-05-17T12:00:24.126Z,13.07
2019-05-17T12:02:57.851Z,12.03
2019-05-17T12:05:31.783Z,11.93
2019-05-17T12:08:08.532Z,11.60
2019-05-17T12:10:46.906Z,11.60
2019-05-17T12:13:21.639Z,10.93
2019-05-17T12:15:55.220Z,11.90
2019-05-17T12:18:28.866Z,10.97
2019-05-17T12:21:03.890Z,11.37
2019-05-17T12:23:37.641Z,12.37
2019-05-17T12:26:11.538Z,11.77
2019-05-17T12:28:45.190Z,11.27
2019-05-17T12:31:18.784Z,11.67
2019-05-17T12:33:52.381Z,11.50
2019-05-17T12:36:25.997Z,11.97
2019-05-17T12:39:02.612Z,11.00
2019-05-17T12:41:36.194Z,10.07
2019-05-17T12:44:09.865Z,10.53
2019-05-17T12:46:43.461Z,9.50
2019-05-17T12:49:18.067Z,10.57
2019-05-17T12:51:51.656Z,10.03
2019-05-17T12:54:25.670Z,9.93
2019-05-17T12:56:59.253Z,10.20
2019-05-17T12:59:32.954Z,9.47
2019-05-17T13:02:06.629Z,9.80
2019-05-17T13:04:40.340Z,8.57
2019-05-17T13:07:14.010Z,10.17
2019-05-17T13:09:49.311Z,9.27
2019-05-17T13:12:23.130Z,10.10
2019-05-17T13:18:34.366Z,11.67
2019-05-17T13:21:08.012Z,11.17
2019-05-17T13:23:41.714Z,9.60
2019-05-17T13:26:15.332Z,9.70
2019-05-17T13:28:48.966Z,7.93
2019-05-17T13:35:10.344Z,8.17
2019-05-17T13:37:44.088Z,8.70
2019-05-17T13:40:18.274Z,7.90
2019-05-17T13:42:52.631Z,7.93
2019-05-17T13:45:26.318Z,8.33
2019-05-17T13:47:59.922Z,7.80
2019-05-17T13:50:33.590Z,7.67
2019-05-17T13:53:07.360Z,8.40
2019-05-17T13:55:47.025Z,8.00
2019-05-17T13:58:20.739Z,8.70
2019-05-17T14:00:54.336Z,9.30
2019-05-17T14:03:28.120Z,8.73
2019-05-17T14:06:01.731Z,9.43
2019-05-17T14:08:35.359Z,9.63
2019-05-17T14:11:09.123Z,10.90
2019-05-17T14:13:42.779Z,10.13
2019-05-17T14:16:18.840Z,10.17
2019-05-17T14:18:52.505Z,10.50
2019-05-17T14:21:26.128Z,11.73
2019-05-17T14:23:59.781Z,11.87
2019-05-17T14:26:33.499Z,11.87
2019-05-17T14:29:07.170Z,12.40
2019-05-17T14:31:40.841Z,11.47
2019-05-17T14:34:14.430Z,11.17
2019-05-17T14:36:48.054Z,12.03
2019-05-17T14:39:21.718Z,11.67
2019-05-17T14:41:55.355Z,11.63
2019-05-17T14:44:30.852Z,11.67
2019-05-17T14:47:04.548Z,11.73
2019-05-17T14:49:38.160Z,11.90
2019-05-17T14:52:11.849Z,12.50
2019-05-17T14:54:45.462Z,14.10
2019-05-17T14:57:19.051Z,13.77
2019-05-17T14:59:52.895Z,10.90
2019-05-17T15:02:26.621Z,10.20
2019-05-17T15:05:00.451Z,10.80
2019-05-17T15:07:34.027Z,9.40
2019-05-17T15:10:08.112Z,9.67
2019-05-17T15:12:41.774Z,9.47
2019-05-17T15:18:43.051Z,4.00
2019-05-17T15:21:16.779Z,3.40
2019-05-17T15:23:50.398Z,3.80
2019-05-17T15:26:23.993Z,5.07
2019-05-17T15:28:57.626Z,6.03
2019-05-17T15:35:17.432Z,6.27
2019-05-17T15:37:51.031Z,5.50
2019-05-17T15:40:24.715Z,5.80
2019-05-17T15:42:58.305Z,5.33
2019-05-17T15:45:31.994Z,5.20
2019-05-17T15:48:05.659Z,4.50
2019-05-17T15:50:39.381Z,5.70
2019-05-17T15:53:13.034Z,5.33
2019-05-17T15:55:46.699Z,6.57
2019-05-17T15:58:20.308Z,6.90
2019-05-17T16:00:54.034Z,6.20
2019-05-17T16:03:27.742Z,6.47
2019-05-17T16:06:01.364Z,7.50
2019-05-17T16:08:35.048Z,6.93
2019-05-17T16:11:08.828Z,7.30
2019-05-17T16:13:42.762Z,7.87
2019-05-17T16:16:16.359Z,8.87
2019-05-17T16:18:50.101Z,8.93
2019-05-17T16:21:23.768Z,10.07
2019-05-17T16:23:57.519Z,11.67
2019-05-17T16:26:31.108Z,10.13
2019-05-17T16:29:04.741Z,12.43
2019-05-17T16:31:38.733Z,12.30
2019-05-17T16:34:12.366Z,11.67
2019-05-17T16:36:45.980Z,12.17
2019-05-17T16:39:19.626Z,13.20
2019-05-17T16:41:53.220Z,13.40
2019-05-17T16:44:26.914Z,13.93
2019-05-17T16:47:00.550Z,13.73
2019-05-17T16:49:34.273Z,13.40
2019-05-17T16:52:08.049Z,14.37
2019-05-17T16:54:41.647Z,14.73
2019-05-17T16:57:15.308Z,15.00
2019-05-17T16:59:49.940Z,17.00
2019-05-17T17:02:23.665Z,18.07
2019-05-17T17:04:57.317Z,18.70
2019-05-17T17:07:30.986Z,20.77
2019-05-17T17:10:05.933Z,19.53
2019-05-17T17:12:39.723Z,19.70
2019-05-17T17:15:13.627Z,20.10
2019-05-17T17:17:47.276Z,19.57
2019-05-17T17:20:22.647Z,20.73
2019-05-17T17:22:56.365Z,19.97
2019-05-17T17:25:30.055Z,19.33
2019-05-17T17:28:05.968Z,18.87
2019-05-17T17:30:39.148Z,18.87
2019-05-17T17:33:13.491Z,19.67
2019-05-17T17:35:47.088Z,20.87
2019-05-17T17:38:20.766Z,22.03
2019-05-17T17:40:54.589Z,23.93
2019-05-17T17:43:28.359Z,23.80
2019-05-17T17:49:39.341Z,22.30
2019-05-17T17:52:13.008Z,21.80
2019-05-17T17:54:46.861Z,23.97
2019-05-17T17:57:20.570Z,22.23
2019-05-17T17:59:55.733Z,23.50
2019-05-17T18:06:15.567Z,37.57
2019-05-17T18:08:49.282Z,26.00
2019-05-17T18:11:22.962Z,36.20
2019-05-17T18:14:11.117Z,29.57
2019-05-17T18:16:32.980Z,26.40
2019-05-17T18:19:06.882Z,38.90
2019-05-17T18:21:40.604Z,29.00
2019-05-17T18:24:14.206Z,28.30
2019-05-17T18:26:48.319Z,30.73
2019-05-17T18:29:21.997Z,38.93
2019-05-17T18:31:55.774Z,29.57
2019-05-17T18:34:29.381Z,29.10
2019-05-17T18:37:03.035Z,38.43
2019-05-17T18:39:36.655Z,30.83
2019-05-17T18:42:10.436Z,44.70
2019-05-17T18:44:44.176Z,39.73
2019-05-17T18:47:17.820Z,41.37
2019-05-17T18:49:51.473Z,44.80
2019-05-17T18:52:25.128Z,39.97
2019-05-17T18:54:58.739Z,35.87
2019-05-17T18:57:32.403Z,36.93
2019-05-17T19:00:08.607Z,42.17
2019-05-17T19:02:42.296Z,42.97
2019-05-17T19:05:16.641Z,25.27
2019-05-17T19:07:50.253Z,26.37
2019-05-17T19:10:24.144Z,25.70
2019-05-17T19:12:57.828Z,32.77
2019-05-17T19:15:31.537Z,33.93
2019-05-17T19:18:05.273Z,39.73
2019-05-17T19:20:38.997Z,32.83
2019-05-17T19:23:12.667Z,23.83
2019-05-17T19:25:46.306Z,26.60
2019-05-17T19:28:19.943Z,27.83
2019-05-17T19:30:53.556Z,27.10
2019-05-17T19:33:27.218Z,30.93
2019-05-17T19:36:00.886Z,21.33
2019-05-17T19:38:34.618Z,24.80
2019-05-17T19:41:08.326Z,27.27
2019-05-17T19:43:41.975Z,25.57
2019-05-17T19:49:53.335Z,24.37
2019-05-17T19:52:27.009Z,24.07
2019-05-17T19:55:00.768Z,24.57
2019-05-17T19:57:34.412Z,25.10
2019-05-17T20:00:10.437Z,23.90
2019-05-17T20:06:20.851Z,27.00
2019-05-17T20:08:54.456Z,26.13
2019-05-17T20:11:34.446Z,28.87
2019-05-17T20:14:03.707Z,28.03
2019-05-17T20:16:37.407Z,26.97
2019-05-17T20:19:11.043Z,27.03
2019-05-17T20:21:44.745Z,25.83
2019-05-17T20:24:18.355Z,30.60
2019-05-17T20:26:52.022Z,26.03
2019-05-17T20:29:25.656Z,32.50
2019-05-17T20:31:59.341Z,31.77
2019-05-17T20:34:32.923Z,31.90
2019-05-17T20:37:06.629Z,31.43
2019-05-17T20:39:40.430Z,31.67
2019-05-17T20:42:14.068Z,28.23
2019-05-17T20:44:47.663Z,28.10
2019-05-17T20:47:21.384Z,30.87
2019-05-17T20:49:55.085Z,29.03
2019-05-17T20:52:28.774Z,29.80
2019-05-17T20:55:04.072Z,32.93
2019-05-17T20:57:37.722Z,28.63
2019-05-17T21:00:13.385Z,31.43
2019-05-17T21:02:46.971Z,26.23
2019-05-17T21:05:20.589Z,34.23
2019-05-17T21:07:54.323Z,31.20
2019-05-17T21:10:27.933Z,33.70
2019-05-17T21:13:01.556Z,34.00
2019-05-17T21:15:46.965Z,30.93
2019-05-17T21:18:10.692Z,31.60
2019-05-17T21:20:44.348Z,32.17
2019-05-17T21:23:18.093Z,31.60
2019-05-17T21:25:51.725Z,31.17
2019-05-17T21:28:25.404Z,33.00
2019-05-17T21:30:58.991Z,30.37
2019-05-17T21:33:32.670Z,34.63
2019-05-17T21:36:06.602Z,39.07
2019-05-17T21:38:40.396Z,42.37
2019-05-17T21:41:14.034Z,35.37
2019-05-17T21:43:47.724Z,38.63
2019-05-17T21:46:21.343Z,40.13
2019-05-17T21:48:55.044Z,41.33
2019-05-17T21:51:28.686Z,37.80
2019-05-17T21:54:02.351Z,39.73
2019-05-17T21:56:36.016Z,38.23
2019-05-17T21:59:12.621Z,37.07
2019-05-17T22:05:22.218Z,33.87
2019-05-17T22:07:56.085Z,35.40
2019-05-17T22:10:29.796Z,33.30
2019-05-17T22:13:03.509Z,31.70
2019-05-17T22:15:37.175Z,33.90
2019-05-17T22:21:48.589Z,37.07
2019-05-17T22:24:22.184Z,37.47
2019-05-17T22:26:55.821Z,34.63
2019-05-17T22:29:29.423Z,37.33
2019-05-17T22:32:03.171Z,37.67
2019-05-17T22:34:36.799Z,39.17
2019-05-17T22:37:10.517Z,38.00
2019-05-17T22:39:44.133Z,35.53
2019-05-17T22:42:17.739Z,38.40
2019-05-17T22:44:51.339Z,41.37
2019-05-17T22:47:25.015Z,38.50
2019-05-17T22:50:00.152Z,41.83
2019-05-17T22:52:33.704Z,40.87
2019-05-17T22:55:07.630Z,38.60
2019-05-17T22:57:41.389Z,38.97
2019-05-17T23:00:15.715Z,38.13
2019-05-17T23:02:49.634Z,35.60
2019-05-17T23:05:26.195Z,36.70
2019-05-17T23:07:58.682Z,37.50
2019-05-17T23:10:35.099Z,38.67
2019-05-17T23:13:07.825Z,38.67
2019-05-17T23:16:01.144Z,40.97
2019-05-17T23:18:35.152Z,43.57
2019-05-17T23:21:08.761Z,46.77
2019-05-17T23:23:42.398Z,50.30
2019-05-17T23:26:15.996Z,40.97
2019-05-17T23:28:49.638Z,44.27
2019-05-17T23:31:23.310Z,46.43
2019-05-17T23:33:57.054Z,41.93
2019-05-17T23:36:30.649Z,45.47
2019-05-17T23:39:06.440Z,41.33
2019-05-17T23:41:40.095Z,38.00
2019-05-17T23:44:13.737Z,38.40
2019-05-17T23:46:47.381Z,37.80
2019-05-17T23:49:20.965Z,48.87
2019-05-17T23:51:54.554Z,41.70
2019-05-17T23:54:28.186Z,38.60
2019-05-17T23:57:01.863Z,33.83
2019-05-17T23:59:35.467Z,31.83
